Current | Forecast
Updated: 1:30 AM CET on December 14, 2017
Observed at Alicante, Spain
Temperature 10°C
Humidity 50%
Dew Point 0°C
Wind WSW at 18 km/h
Pressure 1023 hPa (Steady)
Conditions Clear
Visibility -
UV N/A
Clouds
Yesterday's Maximum 16°C
Yesterday's Minimum 5°C approx.
Yesterday's Heating Degree Days 14 approx.
Sunrise8:13 AM CET
Sunset5:46 PM CET
Moon Rise4:27 AM CET
Moon Set3:43 PM CET
Moon PhaseMoon Phase
Waning Crescent
Raw METARMETAR LEAL 140030Z 24010KT 200V260 CAVOK 10/M00 Q1023 NOSIG


Monday
. High: 95° F.
Tuesday
. High: 95° F.
Wednesday
. High: 80° F.
Thursday
. High: 82° F.
Friday
. High: 78° F.
Saturday
. High: 89° F.
Sunday
. High: 87° F.
Monday
. High: 82° F.

Click here for Marine Information
Scientific forecaster discussion (NWS)

Units: English | Metric

Find the Weather for any City, State or Zipcode, or Country:

U.S. State List | Severe Weather | Tropical Storms | Ski Conditions
United States | Canada | Central America | South America | Asia | Europe | Australia | Africa | Islands

Weather Underground

© Copyright 2017
The Weather Company, LLC